Time;durP1;ratioP1;P1;durP2;ratioP2;P2;SDS_P1;SDS_P2;PMS_P1;PMS_P2;Temp;Humidity;BMP_temperature;BMP_pressure;BME280_temperature;BME280_humidity;BME280_pressure;Samples;Min_cycle;Max_cycle;Signal;HPM_P1;HPM_P2
2022/07/17 00:01:34;;;;;;;6.85;2.65;;;16.10;99.90;;;;;;4997735;28;25173;-62
2022/07/17 00:03:59;;;;;;;6.53;2.63;;;16.20;99.90;;;;;;4994006;28;25065;-62
2022/07/17 00:06:25;;;;;;;6.38;2.85;;;16.20;99.90;;;;;;4980837;28;25121;-61
2022/07/17 00:08:50;;;;;;;9.35;2.80;;;16.10;99.90;;;;;;4997782;28;25113;-61
2022/07/17 00:11:16;;;;;;;6.40;3.00;;;16.00;99.90;;;;;;5004803;28;25120;-62
2022/07/17 00:13:42;;;;;;;8.00;2.33;;;16.00;99.90;;;;;;4996528;28;25079;-62
2022/07/17 00:16:08;;;;;;;7.50;2.40;;;16.10;99.90;;;;;;4996710;28;25069;-61
2022/07/17 00:18:33;;;;;;;9.82;3.38;;;16.10;99.90;;;;;;4987729;28;25069;-62
2022/07/17 00:20:59;;;;;;;9.27;2.67;;;16.20;99.90;;;;;;4996420;28;25065;-62
2022/07/17 00:23:24;;;;;;;7.97;2.78;;;16.20;99.90;;;;;;4988466;28;25084;-63
2022/07/17 00:25:50;;;;;;;6.60;2.72;;;16.30;99.90;;;;;;4997696;28;25075;-61
2022/07/17 00:28:15;;;;;;;9.63;2.75;;;16.20;99.90;;;;;;4996816;28;25134;-61
2022/07/17 00:30:41;;;;;;;7.43;2.67;;;16.10;99.90;;;;;;5000102;28;25051;-61
2022/07/17 00:33:07;;;;;;;10.75;3.05;;;15.90;99.90;;;;;;5000323;28;25059;-62
2022/07/17 00:35:32;;;;;;;6.22;2.65;;;15.80;99.90;;;;;;4998882;28;25074;-61
2022/07/17 00:37:58;;;;;;;8.93;2.85;;;15.70;99.90;;;;;;4994334;28;25073;-62
2022/07/17 00:40:24;;;;;;;11.98;2.70;;;15.60;99.90;;;;;;4998557;28;25075;-61
2022/07/17 00:42:51;;;;;;;10.05;2.88;;;15.60;99.90;;;;;;5001290;28;25072;-61
2022/07/17 00:45:17;;;;;;;7.35;2.53;;;15.60;99.90;;;;;;4987446;28;25068;-63
2022/07/17 00:47:56;;;;;;;7.10;3.25;;;15.60;99.90;;;;;;5002391;28;24841;-61
2022/07/17 00:50:28;;;;;;;6.38;2.63;;;15.60;99.90;;;;;;4991775;28;25081;-61
2022/07/17 00:52:53;;;;;;;8.67;2.43;;;15.60;99.90;;;;;;4995775;28;25096;-62
2022/07/17 00:55:20;;;;;;;7.43;2.63;;;15.70;99.90;;;;;;4984125;28;25131;-61
2022/07/17 00:57:47;;;;;;;8.10;2.92;;;15.60;99.90;;;;;;4992439;28;25109;-61
2022/07/17 01:00:14;;;;;;;8.32;3.03;;;15.60;99.90;;;;;;4992124;28;25137;-62
2022/07/17 01:02:40;;;;;;;5.93;2.25;;;15.60;99.90;;;;;;4984692;28;25137;-61
2022/07/17 01:05:06;;;;;;;5.00;2.00;;;15.70;99.90;;;;;;4991403;28;25072;-62
2022/07/17 01:07:33;;;;;;;7.85;2.22;;;15.80;99.90;;;;;;4994698;28;25103;-63
2022/07/17 01:09:58;;;;;;;6.53;2.00;;;15.90;99.90;;;;;;4990698;28;25054;-63
2022/07/17 01:12:25;;;;;;;6.63;2.20;;;15.90;99.90;;;;;;4991023;28;24881;-62
2022/07/17 01:14:52;;;;;;;5.70;1.95;;;15.90;99.90;;;;;;4994626;28;25048;-63
2022/07/17 01:17:17;;;;;;;3.92;2.15;;;15.80;99.90;;;;;;4999513;28;25070;-61
2022/07/17 01:19:43;;;;;;;5.63;1.90;;;15.80;99.90;;;;;;4988875;28;25060;-63
2022/07/17 01:22:09;;;;;;;6.45;2.00;;;15.90;99.90;;;;;;4998091;28;25059;-62
2022/07/17 01:24:39;;;;;;;11.13;3.05;;;15.80;99.90;;;;;;4981685;28;25042;-61
2022/07/17 01:27:04;;;;;;;5.75;2.22;;;15.80;99.90;;;;;;4998667;28;25087;-62
2022/07/17 01:29:30;;;;;;;5.30;1.80;;;15.70;99.90;;;;;;4987916;28;25091;-62
2022/07/17 01:31:55;;;;;;;7.30;2.03;;;15.70;99.90;;;;;;4990898;28;25073;-61
2022/07/17 01:34:21;;;;;;;7.45;2.22;;;15.80;99.90;;;;;;4986380;28;25129;-62
2022/07/17 01:36:46;;;;;;;6.05;2.30;;;15.80;99.90;;;;;;4986346;28;25155;-62
2022/07/17 01:39:12;;;;;;;6.90;1.80;;;15.80;99.90;;;;;;4987889;28;25068;-61
2022/07/17 01:41:37;;;;;;;8.50;2.35;;;15.70;99.90;;;;;;4990805;28;25060;-61
2022/07/17 01:44:04;;;;;;;5.35;1.90;;;15.80;99.90;;;;;;4999654;28;25079;-62
2022/07/17 01:46:29;;;;;;;3.55;1.67;;;15.80;99.90;;;;;;4994382;28;25087;-62
2022/07/17 01:48:55;;;;;;;7.45;2.35;;;15.80;99.90;;;;;;4998704;28;25146;-62
2022/07/17 01:51:21;;;;;;;6.28;2.03;;;15.80;99.90;;;;;;4987314;28;25155;-61
2022/07/17 01:53:46;;;;;;;8.32;2.25;;;15.70;99.90;;;;;;4988993;28;25054;-61
2022/07/17 01:56:12;;;;;;;7.28;1.85;;;15.60;99.90;;;;;;4997790;28;25148;-61
2022/07/17 01:58:38;;;;;;;7.82;1.65;;;15.50;99.90;;;;;;4994850;28;25139;-62
2022/07/17 02:01:03;;;;;;;5.10;1.98;;;15.40;99.90;;;;;;4995052;28;25157;-62
2022/07/17 02:03:29;;;;;;;4.78;1.75;;;15.40;99.90;;;;;;4996608;28;25116;-62
2022/07/17 02:05:54;;;;;;;7.63;2.13;;;15.30;99.90;;;;;;4988209;28;25177;-62
2022/07/17 02:08:20;;;;;;;3.15;1.70;;;15.40;99.90;;;;;;4998328;28;25060;-61
2022/07/17 02:10:46;;;;;;;4.55;1.50;;;15.40;99.90;;;;;;4994324;28;25093;-62
2022/07/17 02:13:11;;;;;;;7.03;2.10;;;15.40;99.90;;;;;;4984601;28;25155;-62
2022/07/17 02:15:37;;;;;;;4.03;1.50;;;15.40;99.90;;;;;;4985865;28;25124;-62
2022/07/17 02:18:03;;;;;;;8.95;1.80;;;15.40;99.90;;;;;;4995024;28;25065;-61
2022/07/17 02:20:28;;;;;;;5.38;1.63;;;15.40;99.90;;;;;;4991855;28;25059;-62
2022/07/17 02:22:54;;;;;;;4.68;1.88;;;15.40;99.90;;;;;;4988420;28;25064;-61
2022/07/17 02:25:20;;;;;;;5.43;1.77;;;15.40;99.90;;;;;;4989795;28;25079;-60
2022/07/17 02:27:45;;;;;;;8.20;1.90;;;15.30;99.90;;;;;;4987301;28;25115;-63
2022/07/17 02:30:16;;;;;;;8.65;2.13;;;15.30;99.90;;;;;;4993033;28;25081;-61
2022/07/17 02:32:43;;;;;;;11.18;2.15;;;15.30;99.90;;;;;;4987880;28;25160;-62
2022/07/17 02:35:10;;;;;;;8.48;2.70;;;15.20;99.90;;;;;;5004439;28;25066;-62
2022/07/17 02:37:36;;;;;;;6.88;1.98;;;15.30;99.90;;;;;;4997381;28;25080;-61
2022/07/17 02:40:02;;;;;;;4.80;2.00;;;15.30;99.90;;;;;;4992207;28;25086;-62
2022/07/17 02:42:29;;;;;;;7.55;2.33;;;15.30;99.90;;;;;;4999158;28;25077;-62
2022/07/17 02:44:55;;;;;;;9.23;2.20;;;15.30;99.90;;;;;;4984227;28;25066;-62
2022/07/17 02:47:32;;;;;;;4.75;2.13;;;15.30;99.90;;;;;;4998474;28;25065;-61
2022/07/17 02:50:01;;;;;;;6.10;1.88;;;15.30;99.90;;;;;;5001866;28;25149;-62
2022/07/17 02:52:26;;;;;;;6.90;1.58;;;15.30;99.90;;;;;;4999136;28;25148;-62
2022/07/17 02:54:52;;;;;;;6.47;2.17;;;15.50;99.90;;;;;;5001660;28;25138;-62
2022/07/17 02:57:18;;;;;;;6.45;1.55;;;15.50;99.90;;;;;;4990135;28;25063;-61
2022/07/17 02:59:44;;;;;;;9.70;1.95;;;15.50;99.90;;;;;;5002191;28;25067;-61
2022/07/17 03:02:10;;;;;;;5.40;1.70;;;15.50;99.90;;;;;;5001559;28;25115;-62
2022/07/17 03:04:35;;;;;;;3.42;1.52;;;15.60;99.90;;;;;;5002399;28;25148;-62
2022/07/17 03:07:01;;;;;;;5.07;1.50;;;15.50;99.90;;;;;;4989289;28;25054;-62
2022/07/17 03:09:27;;;;;;;6.43;1.80;;;15.50;99.90;;;;;;5001964;28;25099;-61
2022/07/17 03:11:52;;;;;;;7.05;2.00;;;15.40;99.90;;;;;;4992850;28;25121;-62
2022/07/17 03:14:18;;;;;;;5.03;1.63;;;15.40;99.90;;;;;;4983810;28;25055;-62
2022/07/17 03:16:43;;;;;;;6.65;1.38;;;15.40;99.90;;;;;;4985609;28;25085;-62
2022/07/17 03:19:09;;;;;;;5.25;2.08;;;15.30;99.90;;;;;;4981525;28;25069;-62
2022/07/17 03:21:35;;;;;;;8.77;2.10;;;15.30;99.90;;;;;;4990005;28;25154;-62
2022/07/17 03:24:00;;;;;;;5.30;1.80;;;15.20;99.90;;;;;;4988027;28;25060;-62
2022/07/17 03:26:26;;;;;;;6.97;2.15;;;15.30;99.90;;;;;;4987867;28;25057;-62
2022/07/17 03:28:52;;;;;;;5.13;1.80;;;15.30;99.90;;;;;;5003758;28;25090;-62
2022/07/17 03:31:17;;;;;;;5.35;2.00;;;15.30;99.90;;;;;;4979469;28;25132;-61
2022/07/17 03:33:43;;;;;;;7.00;1.90;;;15.20;99.90;;;;;;4985762;28;25157;-62
2022/07/17 03:36:09;;;;;;;6.80;2.15;;;15.30;99.90;;;;;;4985957;28;25109;-63
2022/07/17 03:38:34;;;;;;;6.63;1.80;;;15.20;99.90;;;;;;4982855;28;25103;-62
2022/07/17 03:41:00;;;;;;;6.80;1.52;;;15.10;99.90;;;;;;4982221;28;25085;-62
2022/07/17 03:43:26;;;;;;;8.20;2.40;;;15.10;99.90;;;;;;4982408;28;25118;-62
2022/07/17 03:45:52;;;;;;;6.78;1.80;;;15.20;99.90;;;;;;4990245;28;25096;-62
2022/07/17 03:48:18;;;;;;;5.45;1.88;;;15.10;99.90;;;;;;4993738;28;25059;-61
2022/07/17 03:50:43;;;;;;;5.22;1.70;;;15.10;99.90;;;;;;4991048;28;25097;-62
2022/07/17 03:53:09;;;;;;;4.30;2.15;;;15.00;99.90;;;;;;4993073;28;25191;-62
2022/07/17 03:55:34;;;;;;;10.32;2.83;;;14.90;99.90;;;;;;4991940;28;25100;-62
2022/07/17 03:58:00;;;;;;;6.78;1.88;;;14.90;99.90;;;;;;5003114;28;25096;-62
2022/07/17 04:00:25;;;;;;;6.25;1.55;;;14.90;99.90;;;;;;4985967;28;25080;-62
2022/07/17 04:02:51;;;;;;;8.30;2.08;;;14.80;99.90;;;;;;4995588;28;25059;-62
2022/07/17 04:05:17;;;;;;;5.28;1.90;;;14.90;99.90;;;;;;4994815;28;25097;-63
2022/07/17 04:07:43;;;;;;;5.38;1.80;;;14.90;99.90;;;;;;4989684;28;25056;-62
2022/07/17 04:10:10;;;;;;;6.45;2.30;;;14.90;99.90;;;;;;4992990;28;25055;-62
2022/07/17 04:12:37;;;;;;;8.13;2.05;;;15.00;99.90;;;;;;4994503;28;25052;-63
2022/07/17 04:15:04;;;;;;;8.18;2.08;;;15.10;99.90;;;;;;4997489;28;25068;-62
2022/07/17 04:17:30;;;;;;;5.88;2.13;;;15.20;99.90;;;;;;4998722;28;25069;-63
2022/07/17 04:19:55;;;;;;;7.50;2.13;;;15.30;99.90;;;;;;4994599;28;25070;-63
2022/07/17 04:22:21;;;;;;;6.57;2.17;;;15.30;99.90;;;;;;4993696;28;25183;-60
2022/07/17 04:24:47;;;;;;;11.85;2.10;;;15.30;99.90;;;;;;4996877;28;25079;-62
2022/07/17 04:27:12;;;;;;;4.88;2.45;;;15.30;99.90;;;;;;4998157;28;25061;-62
2022/07/17 04:29:39;;;;;;;5.43;1.77;;;15.30;99.90;;;;;;5000046;28;25163;-61
2022/07/17 04:32:04;;;;;;;6.43;2.20;;;15.40;99.90;;;;;;4996704;28;25394;-61
2022/07/17 04:34:32;;;;;;;6.03;2.17;;;15.50;99.90;;;;;;4995706;28;25079;-62
2022/07/17 04:36:57;;;;;;;9.80;2.92;;;15.50;99.90;;;;;;4994951;28;25115;-63
2022/07/17 04:39:23;;;;;;;9.80;2.67;;;15.70;99.90;;;;;;4981851;28;25109;-60
2022/07/17 04:41:49;;;;;;;4.47;1.73;;;15.60;99.90;;;;;;4998640;28;25059;-62
2022/07/17 04:44:15;;;;;;;6.07;2.00;;;15.70;99.90;;;;;;4988284;28;25156;-61
2022/07/17 04:46:41;;;;;;;7.75;2.83;;;15.70;99.90;;;;;;4986337;28;25155;-61
2022/07/17 04:49:06;;;;;;;8.60;2.15;;;15.70;99.90;;;;;;4998527;28;25102;-62
2022/07/17 04:51:32;;;;;;;6.50;1.88;;;15.80;99.90;;;;;;4990624;28;25062;-62
2022/07/17 04:53:57;;;;;;;5.85;2.17;;;15.80;99.90;;;;;;4982058;28;25063;-62
2022/07/17 04:56:23;;;;;;;9.60;2.58;;;15.90;99.90;;;;;;4990588;28;25067;-60
2022/07/17 04:58:48;;;;;;;5.82;2.20;;;15.80;99.90;;;;;;4994869;28;25056;-61
2022/07/17 05:01:14;;;;;;;6.70;1.45;;;15.70;99.90;;;;;;4991796;28;25060;-61
2022/07/17 05:03:39;;;;;;;6.03;2.22;;;15.70;99.90;;;;;;4990846;28;25070;-59
2022/07/17 05:06:06;;;;;;;9.45;1.90;;;15.80;99.90;;;;;;4995089;28;25087;-61
2022/07/17 05:08:31;;;;;;;8.93;2.15;;;15.90;99.90;;;;;;4995008;28;25065;-59
2022/07/17 05:10:57;;;;;;;5.55;2.28;;;16.00;99.90;;;;;;4992528;28;25068;-60
2022/07/17 05:13:22;;;;;;;6.28;1.92;;;16.10;99.90;;;;;;4993583;28;25145;-60
2022/07/17 05:15:49;;;;;;;5.80;2.42;;;16.20;99.90;;;;;;5002104;28;25089;-59
2022/07/17 05:18:15;;;;;;;8.25;2.47;;;16.10;99.90;;;;;;4993043;28;25073;-59
2022/07/17 05:20:40;;;;;;;10.70;2.33;;;16.20;99.90;;;;;;4999579;28;25071;-59
2022/07/17 05:23:06;;;;;;;6.78;2.08;;;16.20;99.90;;;;;;4991645;28;25161;-59
2022/07/17 05:25:32;;;;;;;8.55;2.22;;;16.20;99.90;;;;;;4994743;28;25111;-58
2022/07/17 05:27:58;;;;;;;3.45;1.80;;;16.30;99.90;;;;;;4987505;28;25074;-59
2022/07/17 05:30:23;;;;;;;6.07;2.10;;;16.40;99.90;;;;;;4990160;28;25119;-64
2022/07/17 05:32:49;;;;;;;5.45;1.95;;;16.40;99.90;;;;;;4984772;28;25103;-60
2022/07/17 05:35:14;;;;;;;8.30;2.08;;;16.60;99.90;;;;;;4975097;28;25144;-60
2022/07/17 05:37:40;;;;;;;9.85;2.55;;;16.70;99.90;;;;;;4976440;28;25156;-60
2022/07/17 05:40:07;;;;;;;6.45;1.98;;;16.70;99.90;;;;;;4972222;28;25100;-59
2022/07/17 05:42:32;;;;;;;13.02;2.20;;;16.70;99.90;;;;;;4969498;28;25131;-61
2022/07/17 05:44:58;;;;;;;10.15;2.67;;;16.70;99.90;;;;;;4971827;28;25065;-60
2022/07/17 05:47:25;;;;;;;7.95;2.10;;;16.80;99.90;;;;;;4973456;28;25143;-60
2022/07/17 05:49:50;;;;;;;4.55;1.58;;;16.80;99.90;;;;;;4976346;28;25079;-60
2022/07/17 05:52:16;;;;;;;10.65;2.03;;;16.80;99.90;;;;;;4974231;28;25134;-60
2022/07/17 05:54:42;;;;;;;6.40;2.00;;;16.90;99.90;;;;;;4970185;28;25066;-59
2022/07/17 05:57:08;;;;;;;10.27;1.92;;;17.00;99.90;;;;;;4982971;28;25061;-60
2022/07/17 05:59:34;;;;;;;6.10;1.83;;;17.10;99.90;;;;;;4984411;28;25133;-59
2022/07/17 06:02:00;;;;;;;5.57;2.10;;;17.10;99.90;;;;;;4986091;28;25124;-59
2022/07/17 06:04:25;;;;;;;7.40;1.83;;;17.20;99.90;;;;;;4977926;28;25052;-60
2022/07/17 06:06:51;;;;;;;4.97;1.70;;;17.30;99.90;;;;;;4989814;28;25196;-60
2022/07/17 06:09:17;;;;;;;10.57;2.20;;;17.40;99.90;;;;;;4985864;28;25147;-60
2022/07/17 06:11:42;;;;;;;4.53;1.77;;;17.60;99.90;;;;;;4986804;28;25057;-60
2022/07/17 06:14:08;;;;;;;8.40;2.08;;;17.50;99.90;;;;;;4981834;28;25071;-60
2022/07/17 06:16:33;;;;;;;4.40;1.75;;;17.40;99.90;;;;;;4987950;28;25104;-60
2022/07/17 06:18:59;;;;;;;15.10;2.20;;;17.20;99.90;;;;;;4985849;28;25102;-60
2022/07/17 06:21:24;;;;;;;10.88;1.98;;;17.40;99.90;;;;;;4985769;28;25148;-60
2022/07/17 06:23:50;;;;;;;4.43;1.83;;;17.50;99.90;;;;;;4990437;28;25085;-62
2022/07/17 06:26:15;;;;;;;8.65;2.03;;;17.50;99.90;;;;;;4982905;28;25067;-60
2022/07/17 06:28:41;;;;;;;6.85;1.70;;;17.70;99.90;;;;;;4984109;28;25068;-58
2022/07/17 06:31:06;;;;;;;6.28;1.52;;;17.80;99.90;;;;;;4982240;28;25162;-61
2022/07/17 06:33:32;;;;;;;9.38;2.40;;;18.20;99.90;;;;;;4986933;28;25061;-59
2022/07/17 06:35:57;;;;;;;8.70;1.70;;;18.20;99.90;;;;;;4987287;28;25076;-61
2022/07/17 06:38:24;;;;;;;7.53;1.85;;;18.40;99.90;;;;;;4993821;28;25103;-60
2022/07/17 06:40:49;;;;;;;6.47;1.80;;;18.90;99.90;;;;;;4988483;28;25159;-59
2022/07/17 06:43:15;;;;;;;5.22;2.05;;;19.10;99.90;;;;;;4988003;28;25053;-60
2022/07/17 06:45:41;;;;;;;9.90;1.60;;;19.20;99.90;;;;;;4992796;28;25058;-58
2022/07/17 06:48:06;;;;;;;8.75;1.73;;;19.40;99.90;;;;;;4990006;28;25134;-60
2022/07/17 06:50:32;;;;;;;5.35;1.60;;;19.10;99.90;;;;;;4991911;28;25107;-60
2022/07/17 06:52:58;;;;;;;9.43;2.28;;;19.20;99.90;;;;;;4999771;28;25098;-59
2022/07/17 06:55:23;;;;;;;7.03;1.77;;;19.30;99.90;;;;;;4993718;28;25173;-59
2022/07/17 06:57:49;;;;;;;3.03;1.20;;;19.30;99.90;;;;;;4997813;28;25068;-60
2022/07/17 07:00:17;;;;;;;4.93;1.40;;;19.30;99.90;;;;;;4981230;28;25169;-59
2022/07/17 07:02:43;;;;;;;6.75;1.33;;;19.10;99.90;;;;;;4988330;28;25056;-60
2022/07/17 07:05:09;;;;;;;5.53;1.50;;;19.50;99.90;;;;;;4997289;28;25141;-60
2022/07/17 07:07:35;;;;;;;4.32;1.60;;;19.60;99.90;;;;;;4988786;28;25067;-60
2022/07/17 07:10:01;;;;;;;4.32;1.45;;;19.60;99.90;;;;;;4989090;28;25105;-60
2022/07/17 07:12:26;;;;;;;5.47;1.65;;;20.10;99.90;;;;;;4983846;28;25131;-60
2022/07/17 07:14:52;;;;;;;6.95;1.48;;;20.50;99.90;;;;;;4987643;28;25079;-60
2022/07/17 07:17:19;;;;;;;6.63;1.60;;;20.30;99.90;;;;;;4983563;28;25121;-61
2022/07/17 07:19:44;;;;;;;3.92;1.58;;;20.40;99.90;;;;;;4980033;28;25164;-60
2022/07/17 07:22:10;;;;;;;7.03;1.60;;;20.70;99.90;;;;;;4980894;28;25098;-59
2022/07/17 07:24:35;;;;;;;5.03;1.80;;;20.90;99.90;;;;;;4986534;28;25066;-60
2022/07/17 07:27:01;;;;;;;6.50;1.98;;;20.30;99.90;;;;;;4997001;28;25125;-60
2022/07/17 07:29:27;;;;;;;6.10;1.70;;;19.60;99.90;;;;;;4998299;28;25119;-60
2022/07/17 07:31:52;;;;;;;5.38;1.80;;;19.10;99.90;;;;;;4978941;28;25047;-61
2022/07/17 07:34:18;;;;;;;7.82;1.90;;;19.70;99.90;;;;;;4983052;28;25103;-60
2022/07/17 07:36:43;;;;;;;3.20;1.52;;;20.50;99.90;;;;;;4976485;28;25163;-59
2022/07/17 07:39:09;;;;;;;6.22;1.75;;;20.90;99.90;;;;;;4978743;28;25128;-62
2022/07/17 07:41:34;;;;;;;3.20;1.65;;;21.30;99.90;;;;;;4982784;28;25209;-60
2022/07/17 07:44:00;;;;;;;6.05;1.50;;;21.40;99.90;;;;;;4972172;28;25131;-62
2022/07/17 07:46:25;;;;;;;4.45;1.40;;;21.50;99.90;;;;;;4976742;28;25116;-61
2022/07/17 07:48:51;;;;;;;6.43;1.90;;;21.30;99.90;;;;;;4975865;28;25109;-62
2022/07/17 07:51:16;;;;;;;10.15;1.85;;;21.60;99.90;;;;;;4982792;28;25152;-61
2022/07/17 07:53:42;;;;;;;5.20;1.65;;;21.20;99.90;;;;;;4981696;28;25160;-61
2022/07/17 07:56:07;;;;;;;3.28;1.23;;;20.60;98.80;;;;;;4987977;28;25094;-60
2022/07/17 07:58:33;;;;;;;5.90;1.60;;;20.40;99.90;;;;;;4981290;28;25158;-60
2022/07/17 08:00:59;;;;;;;4.47;1.58;;;19.70;99.90;;;;;;4979823;28;25084;-61
2022/07/17 08:03:25;;;;;;;6.60;1.90;;;19.40;99.90;;;;;;4980186;28;25070;-62
2022/07/17 08:05:50;;;;;;;5.95;1.65;;;19.50;99.90;;;;;;4981879;28;25112;-62
2022/07/17 08:08:16;;;;;;;5.90;1.60;;;19.80;99.90;;;;;;4985981;28;25074;-61
2022/07/17 08:10:41;;;;;;;2.47;1.10;;;20.00;99.90;;;;;;4981233;28;25083;-61
2022/07/17 08:13:07;;;;;;;9.48;1.63;;;20.10;99.90;;;;;;4982395;28;25048;-62
2022/07/17 08:15:32;;;;;;;6.47;1.60;;;20.00;99.90;;;;;;4978783;28;25063;-61
2022/07/17 08:17:59;;;;;;;5.15;1.40;;;19.80;99.90;;;;;;4973416;28;25084;-61
2022/07/17 08:20:25;;;;;;;4.30;1.17;;;20.30;99.90;;;;;;4997675;28;25083;-62
2022/07/17 08:22:50;;;;;;;5.88;1.65;;;20.20;99.70;;;;;;4989503;28;25149;-60
2022/07/17 08:25:16;;;;;;;6.43;1.50;;;20.20;99.90;;;;;;4992496;28;25101;-60
2022/07/17 08:27:43;;;;;;;5.32;1.27;;;20.00;99.90;;;;;;4992599;28;25099;-60
2022/07/17 08:30:11;;;;;;;10.80;1.88;;;20.30;99.90;;;;;;4988724;28;25118;-60
2022/07/17 08:32:37;;;;;;;3.25;1.55;;;20.30;99.90;;;;;;4993060;28;25082;-62
2022/07/17 08:35:04;;;;;;;5.93;1.85;;;20.40;99.90;;;;;;4987730;28;25053;-62
2022/07/17 08:37:29;;;;;;;4.03;1.63;;;20.80;96.30;;;;;;4992199;28;25059;-61
2022/07/17 08:39:56;;;;;;;4.43;1.60;;;21.20;95.40;;;;;;4994750;28;25130;-61
2022/07/17 08:42:22;;;;;;;2.22;1.10;;;21.50;92.60;;;;;;4982730;28;25098;-61
2022/07/17 08:44:47;;;;;;;3.55;1.10;;;21.00;93.90;;;;;;4974801;28;25165;-61
2022/07/17 08:47:14;;;;;;;7.15;1.63;;;21.30;93.80;;;;;;4977853;28;25064;-64
2022/07/17 08:49:45;;;;;;;12.40;2.25;;;21.50;93.40;;;;;;4974416;28;25064;-64
2022/07/17 08:52:12;;;;;;;6.57;1.63;;;22.20;91.50;;;;;;4971870;28;25073;-62
2022/07/17 08:54:38;;;;;;;4.60;1.17;;;22.20;82.10;;;;;;4971420;28;25083;-62
2022/07/17 08:57:04;;;;;;;5.78;1.70;;;22.30;80.60;;;;;;4973437;28;25104;-62
2022/07/17 08:59:31;;;;;;;3.88;1.70;;;22.20;83.50;;;;;;4971667;28;25134;-63
2022/07/17 09:01:58;;;;;;;6.10;1.70;;;22.00;84.60;;;;;;4980039;28;25081;-62
2022/07/17 09:04:24;;;;;;;2.17;1.40;;;21.90;84.80;;;;;;4978638;28;25066;-62
2022/07/17 09:07:04;;;;;;;6.47;1.50;;;22.00;81.60;;;;;;4979042;28;25065;-62
2022/07/17 09:09:31;;;;;;;4.88;1.20;;;21.80;83.50;;;;;;4985107;28;25065;-62
2022/07/17 09:12:01;;;;;;;5.75;1.45;;;21.70;88.40;;;;;;4998272;28;25056;-62
2022/07/17 09:14:40;;;;;;;8.18;1.60;;;22.10;71.80;;;;;;4975267;28;25054;-63
2022/07/17 09:17:08;;;;;;;7.13;1.73;;;22.40;72.10;;;;;;4982168;28;25062;-63
2022/07/17 09:19:37;;;;;;;3.78;1.60;;;22.70;67.60;;;;;;4982829;28;25077;-61
2022/07/17 09:22:16;;;;;;;4.80;1.33;;;21.90;68.30;;;;;;4983039;28;25131;-63
2022/07/17 09:24:47;;;;;;;9.48;1.90;;;22.10;70.00;;;;;;4983117;28;25076;-63
2022/07/17 09:27:17;;;;;;;4.97;1.52;;;22.40;56.50;;;;;;4972282;28;25050;-62
2022/07/17 09:30:10;;;;;;;9.07;2.70;;;22.30;56.80;;;;;;4979129;28;25055;-61
2022/07/17 09:32:41;;;;;;;3.45;1.50;;;22.70;44.10;;;;;;4985341;28;25146;-62
2022/07/17 09:35:10;;;;;;;8.60;1.57;;;22.90;59.50;;;;;;4972094;28;25059;-62
2022/07/17 09:37:37;;;;;;;5.40;1.60;;;23.00;46.10;;;;;;4977464;28;25077;-63
2022/07/17 09:42:58;;;;;;;5.15;1.58;;;22.00;44.40;;;;;;4970355;28;25072;-63
2022/07/17 09:45:24;;;;;;;3.78;1.33;;;22.50;54.70;;;;;;4977563;28;25056;-62
2022/07/17 09:47:52;;;;;;;3.33;1.48;;;23.00;52.70;;;;;;4981531;28;25048;-62
2022/07/17 09:50:18;;;;;;;2.67;1.30;;;23.20;51.00;;;;;;4982187;28;25145;-60
2022/07/17 09:52:44;;;;;;;2.67;1.20;;;23.20;41.80;;;;;;4982114;28;25084;-61
2022/07/17 09:55:11;;;;;;;3.90;1.65;;;23.40;41.20;;;;;;4978359;28;25085;-61
2022/07/17 09:57:40;;;;;;;2.72;1.30;;;23.30;40.00;;;;;;4976347;28;25044;-63
2022/07/17 10:00:15;;;;;;;4.32;1.38;;;23.80;51.10;;;;;;4987396;28;25059;-62
2022/07/17 10:02:41;;;;;;;3.55;1.30;;;24.30;45.10;;;;;;4989173;28;25132;-62
2022/07/17 10:05:12;;;;;;;3.30;1.75;;;24.60;33.60;;;;;;4993560;28;25111;-63
2022/07/17 10:07:42;;;;;;;3.20;1.42;;;25.20;25.20;;;;;;4997341;28;25061;-62
2022/07/17 10:10:09;;;;;;;7.35;1.67;;;24.70;4.10;;;;;;4991487;28;25150;-61
2022/07/17 10:12:37;;;;;;;2.67;1.15;;;24.50;14.70;;;;;;4995196;28;25141;-62
2022/07/17 10:15:04;;;;;;;2.72;1.40;;;24.30;22.30;;;;;;4986691;28;25082;-63
2022/07/17 10:17:29;;;;;;;3.65;1.42;;;23.80;24.30;;;;;;5000612;28;25069;-62
2022/07/17 10:19:56;;;;;;;4.82;1.52;;;24.00;30.90;;;;;;4997364;28;25061;-61
2022/07/17 10:22:22;;;;;;;3.90;1.48;;;24.40;32.70;;;;;;5006820;28;25068;-62
2022/07/17 10:24:50;;;;;;;3.95;1.35;;;24.30;32.90;;;;;;4996212;28;25072;-63
2022/07/17 10:27:28;;;;;;;4.50;1.42;;;24.30;33.70;;;;;;4999762;28;25152;-60
2022/07/17 10:30:09;;;;;;;3.35;1.60;;;24.40;39.30;;;;;;4990860;28;25083;-63
2022/07/17 10:32:35;;;;;;;6.47;1.73;;;25.10;31.90;;;;;;4989584;28;25077;-61
2022/07/17 10:35:05;;;;;;;4.18;1.80;;;25.60;18.80;;;;;;5007623;28;25076;-62
2022/07/17 10:37:37;;;;;;;5.03;1.50;;;25.60;14.20;;;;;;5005318;28;25085;-62
2022/07/17 10:40:14;;;;;;;5.63;1.52;;;26.10;12.70;;;;;;4989946;28;25063;-61
2022/07/17 10:42:45;;;;;;;4.72;1.63;;;25.30;20.80;;;;;;4999455;28;25083;-62
2022/07/17 10:45:18;;;;;;;4.82;1.50;;;25.80;27.50;;;;;;4998799;28;25169;-62
2022/07/17 10:47:50;;;;;;;5.65;1.65;;;25.80;17.90;;;;;;4996188;28;25106;-62
2022/07/17 10:50:17;;;;;;;4.65;1.85;;;25.90;11.10;;;;;;4992377;28;25082;-62
2022/07/17 10:52:43;;;;;;;6.15;1.85;;;25.60;17.00;;;;;;4993168;28;25110;-63
2022/07/17 10:55:20;;;;;;;4.30;1.58;;;25.90;18.40;;;;;;4990014;28;25097;-63
2022/07/17 10:57:47;;;;;;;1363.60;130.65;;;26.40;10.90;;;;;;4994093;28;25112;-62
2022/07/17 11:00:13;;;;;;;24.80;3.80;;;26.20;7.70;;;;;;4999916;28;25067;-62
2022/07/17 11:02:38;;;;;;;6.13;1.95;;;25.50;14.80;;;;;;4998987;28;25057;-62
2022/07/17 11:05:12;;;;;;;5.97;2.05;;;25.20;24.70;;;;;;4981477;28;25128;-62
2022/07/17 11:07:52;;;;;;;3.97;1.40;;;24.80;20.20;;;;;;4977806;28;25056;-63
2022/07/17 11:10:19;;;;;;;3.88;1.67;;;25.10;26.70;;;;;;4998596;28;25062;-63
2022/07/17 11:12:44;;;;;;;11.10;1.67;;;25.60;20.80;;;;;;4992343;28;25178;-65
2022/07/17 11:15:10;;;;;;;2.20;1.20;;;25.90;16.70;;;;;;4995183;28;25114;-62
2022/07/17 11:17:36;;;;;;;3.17;1.65;;;26.40;11.00;;;;;;4999115;28;25075;-63
2022/07/17 11:20:04;;;;;;;13.80;2.83;;;26.40;6.60;;;;;;5003015;28;25067;-63
2022/07/17 11:22:29;;;;;;;3.90;1.80;;;27.10;2.40;;;;;;4995209;28;25079;-64
2022/07/17 11:24:55;;;;;;;4.25;1.58;;;27.00;1.00;;;;;;4998149;28;25067;-63
2022/07/17 11:27:26;;;;;;;6.50;1.42;;;26.00;1.00;;;;;;4995424;28;25092;-62
2022/07/17 11:29:54;;;;;;;4.70;1.93;;;25.60;2.00;;;;;;4997722;28;25089;-63
2022/07/17 11:32:21;;;;;;;6.28;1.98;;;25.70;12.80;;;;;;4998775;28;25086;-63
2022/07/17 11:34:46;;;;;;;3.33;1.73;;;25.60;10.70;;;;;;4997257;28;25079;-63
2022/07/17 11:37:12;;;;;;;3.95;1.58;;;25.80;12.20;;;;;;4997396;28;25062;-64
2022/07/17 11:39:49;;;;;;;3.13;1.73;;;26.40;7.10;;;;;;4989501;28;25158;-62
2022/07/17 11:42:20;;;;;;;6.10;2.40;;;26.70;1.00;;;;;;4997666;28;25100;-64
2022/07/17 11:44:48;;;;;;;4.50;1.90;;;26.40;2.30;;;;;;4994715;28;25061;-63
2022/07/17 11:47:21;;;;;;;1.73;1.40;;;26.10;1.00;;;;;;5006180;28;25150;-63
2022/07/17 11:49:46;;;;;;;5.85;2.08;;;26.20;1.00;;;;;;5006991;28;25134;-61
2022/07/17 11:52:13;;;;;;;6.03;1.90;;;25.70;4.70;;;;;;4992643;28;25088;-63
2022/07/17 11:54:56;;;;;;;3.95;2.13;;;25.30;10.70;;;;;;4988807;28;25064;-62
2022/07/17 11:57:22;;;;;;;3.28;1.80;;;25.60;15.00;;;;;;4978524;28;25059;-62
2022/07/17 11:59:49;;;;;;;3.72;2.25;;;26.40;11.10;;;;;;4976791;28;25110;-63
2022/07/17 12:02:19;;;;;;;2.80;1.70;;;27.10;1.00;;;;;;4973241;28;25088;-62
2022/07/17 12:04:52;;;;;;;4.72;1.75;;;27.30;1.00;;;;;;4973011;28;25075;-63
2022/07/17 12:07:19;;;;;;;5.32;2.08;;;27.30;1.00;;;;;;4972130;28;25144;-64
2022/07/17 12:09:44;;;;;;;4.45;1.65;;;27.80;1.00;;;;;;4976384;28;25133;-63
2022/07/17 12:12:27;;;;;;;4.00;1.67;;;28.00;1.00;;;;;;4979864;28;25071;-62
2022/07/17 12:14:54;;;;;;;4.05;2.40;;;27.20;1.00;;;;;;4974520;28;25075;-61
2022/07/17 12:17:21;;;;;;;4.55;2.28;;;26.80;1.00;;;;;;4977672;28;25162;-61
2022/07/17 12:19:47;;;;;;;3.72;2.17;;;26.20;1.00;;;;;;4978380;28;25056;-61
2022/07/17 12:22:13;;;;;;;6.40;2.83;;;25.00;1.00;;;;;;4973737;28;25054;-62
2022/07/17 12:24:41;;;;;;;2.28;1.70;;;25.80;1.00;;;;;;4975699;28;25128;-60
2022/07/17 12:27:09;;;;;;;4.40;2.22;;;26.30;1.00;;;;;;4979266;28;25095;-61
2022/07/17 12:29:36;;;;;;;4.38;2.00;;;25.50;4.30;;;;;;4984766;28;25077;-61
2022/07/17 12:32:01;;;;;;;5.28;1.85;;;25.60;14.20;;;;;;4974751;28;25134;-61
2022/07/17 12:34:27;;;;;;;6.68;1.90;;;25.50;12.30;;;;;;4978930;28;25061;-62
2022/07/17 12:36:53;;;;;;;3.50;2.40;;;25.60;15.10;;;;;;4973705;28;25059;-60
2022/07/17 12:39:18;;;;;;;4.22;2.35;;;25.70;2.60;;;;;;4970222;28;25085;-59
2022/07/17 12:41:44;;;;;;;4.40;2.95;;;26.00;1.40;;;;;;4972120;28;25017;-63
2022/07/17 12:44:10;;;;;;;4.93;2.28;;;26.10;1.00;;;;;;4977942;28;25083;-63
2022/07/17 12:46:36;;;;;;;6.63;2.70;;;25.80;1.00;;;;;;4992492;28;25087;-63
2022/07/17 12:49:01;;;;;;;4.18;2.20;;;25.40;1.00;;;;;;5001108;28;25080;-62